Time;durP1;ratioP1;P1;durP2;ratioP2;P2;SDS_P1;SDS_P2;PMS_P1;PMS_P2;Temp;Humidity;BMP_temperature;BMP_pressure;BME280_temperature;BME280_humidity;BME280_pressure;Samples;Min_cycle;Max_cycle;Signal;HPM_P1;HPM_P2
2022/10/18 00:00:21;;;;;;;;;;;13.90;99.90;;;;;;5009391;28;19930;-57
2022/10/18 00:02:48;;;;;;;;;;;13.90;99.90;;;;;;5007439;28;20113;-57
2022/10/18 00:05:14;;;;;;;;;;;13.90;99.90;;;;;;5010148;28;19933;-57
2022/10/18 00:07:42;;;;;;;;;;;13.90;99.90;;;;;;5006860;28;19934;-57
2022/10/18 00:10:09;;;;;;;;;;;13.90;99.90;;;;;;5009542;28;20007;-57
2022/10/18 00:12:37;;;;;;;;;;;13.90;99.90;;;;;;5008031;28;19929;-57
2022/10/18 00:15:05;;;;;;;;;;;13.90;99.90;;;;;;5010009;28;19934;-57
2022/10/18 00:17:31;;;;;;;;;;;13.90;99.90;;;;;;5008422;28;20044;-57
2022/10/18 00:19:58;;;;;;;;;;;13.90;99.90;;;;;;5009845;28;20000;-57
2022/10/18 00:22:25;;;;;;;;;;;13.80;99.90;;;;;;5009512;28;19929;-57
2022/10/18 00:24:53;;;;;;;;;;;13.80;99.90;;;;;;5009438;28;19933;-57
2022/10/18 00:27:19;;;;;;;;;;;13.80;99.90;;;;;;5008470;28;19929;-57
2022/10/18 00:29:46;;;;;;;;;;;13.80;99.90;;;;;;5008059;28;19984;-57
2022/10/18 00:32:13;;;;;;;;;;;13.80;99.90;;;;;;5009799;28;20131;-57
2022/10/18 00:34:40;;;;;;;;;;;13.80;99.90;;;;;;5009016;28;19941;-57
2022/10/18 00:37:06;;;;;;;;;;;13.80;99.90;;;;;;5006936;28;19929;-57
2022/10/18 00:39:34;;;;;;;;;;;13.80;99.90;;;;;;5007637;28;19930;-57
2022/10/18 00:42:02;;;;;;;;;;;13.80;99.90;;;;;;5008555;28;19929;-57
2022/10/18 00:44:48;;;;;;;;;;;13.70;99.90;;;;;;5007598;28;19941;-57
2022/10/18 00:47:16;;;;;;;;;;;13.70;99.90;;;;;;5007555;28;19930;-57
2022/10/18 00:49:44;;;;;;;;;;;13.70;99.90;;;;;;5008421;28;19937;-57
2022/10/18 00:52:12;;;;;;;;;;;13.70;99.90;;;;;;5008786;28;20420;-57
2022/10/18 00:54:40;;;;;;;;;;;13.70;99.90;;;;;;5009611;28;20415;-57
2022/10/18 00:57:08;;;;;;;;;;;13.70;99.90;;;;;;5008662;28;19937;-57
2022/10/18 00:59:35;;;;;;;;;;;13.60;99.90;;;;;;5009470;28;19929;-57
2022/10/18 01:02:02;;;;;;;;;;;13.60;99.90;;;;;;5009160;28;19929;-57
2022/10/18 01:04:29;;;;;;;;;;;13.60;99.90;;;;;;5008924;28;19933;-57
2022/10/18 01:06:59;;;;;;;;;;;13.70;99.90;;;;;;5007247;28;19941;-57
2022/10/18 01:09:29;;;;;;;;;;;13.60;99.90;;;;;;5006409;28;19936;-57
2022/10/18 01:12:02;;;;;;;;;;;13.60;99.90;;;;;;5007822;28;21350;-57
2022/10/18 01:14:34;;;;;;;;;;;13.50;99.90;;;;;;5007994;28;19933;-57
2022/10/18 01:17:03;;;;;;;;;;;13.60;99.90;;;;;;5008592;28;19929;-57
2022/10/18 01:19:45;;;;;;;;;;;13.50;99.90;;;;;;5008240;28;19930;-57
2022/10/18 01:22:14;;;;;;;;;;;13.50;99.90;;;;;;5008192;28;19930;-57
2022/10/18 01:24:56;;;;;;;;;;;13.50;99.90;;;;;;5008376;28;19943;-57
2022/10/18 01:27:33;;;;;;;;;;;13.50;99.90;;;;;;5004873;28;19930;-57
2022/10/18 01:30:11;;;;;;;;;;;13.50;99.90;;;;;;5008413;28;19980;-57
2022/10/18 01:32:42;;;;;;;;;;;13.50;99.90;;;;;;5008521;28;19937;-57
2022/10/18 01:35:11;;;;;;;;;;;13.50;99.90;;;;;;5009047;28;19943;-57
2022/10/18 01:37:39;;;;;;;;;;;13.50;99.90;;;;;;5007398;28;19930;-57
2022/10/18 01:40:06;;;;;;;;;;;13.40;99.90;;;;;;5008466;28;19936;-57
2022/10/18 01:42:33;;;;;;;;;;;13.40;99.90;;;;;;5008634;28;19930;-57
2022/10/18 01:45:01;;;;;;;;;;;13.40;99.90;;;;;;5009654;28;19933;-57
2022/10/18 01:47:28;;;;;;;;;;;13.50;99.90;;;;;;5008389;28;21140;-57
2022/10/18 01:49:58;;;;;;;;;;;13.40;99.90;;;;;;5007321;28;19936;-57
2022/10/18 01:52:25;;;;;;;;;;;13.50;99.90;;;;;;5006652;28;19929;-57
2022/10/18 01:54:52;;;;;;;;;;;13.50;99.90;;;;;;5007258;28;19934;-57
2022/10/18 01:57:22;;;;;;;;;;;13.50;99.90;;;;;;5007689;28;20352;-57
2022/10/18 01:59:51;;;;;;;;;;;13.60;99.90;;;;;;5011458;28;19929;-57
2022/10/18 02:02:24;;;;;;;;;;;13.60;99.90;;;;;;5011364;28;19941;-57
2022/10/18 02:04:53;;;;;;;;;;;13.70;99.90;;;;;;5012352;28;19934;-57
2022/10/18 02:07:26;;;;;;;;;;;13.70;99.90;;;;;;5011122;28;19929;-57
2022/10/18 02:09:58;;;;;;;;;;;13.70;99.90;;;;;;5011164;28;20707;-57
2022/10/18 02:12:25;;;;;;;;;;;13.70;99.90;;;;;;5011130;28;19963;-57
2022/10/18 02:14:52;;;;;;;;;;;13.80;99.90;;;;;;5012212;28;19940;-57
2022/10/18 02:17:19;;;;;;;;;;;13.80;99.90;;;;;;5013247;28;19929;-57
2022/10/18 02:19:48;;;;;;;;;;;13.80;99.90;;;;;;5012350;28;20812;-57
2022/10/18 02:22:15;;;;;;;;;;;13.80;99.90;;;;;;5007770;28;19933;-57
2022/10/18 02:24:46;;;;;;;;;;;13.80;99.90;;;;;;5009123;28;19934;-57
2022/10/18 02:27:12;;;;;;;;;;;13.80;99.90;;;;;;5011347;28;19937;-57
2022/10/18 02:29:40;;;;;;;;;;;13.90;99.90;;;;;;5010089;28;19961;-57
2022/10/18 02:32:09;;;;;;;;;;;13.90;99.90;;;;;;5012064;28;20069;-57
2022/10/18 02:34:38;;;;;;;;;;;13.90;99.90;;;;;;5010496;28;21799;-57
2022/10/18 02:37:05;;;;;;;;;;;13.90;99.90;;;;;;5009471;28;19936;-57
2022/10/18 02:39:33;;;;;;;;;;;13.90;99.90;;;;;;5010486;28;19929;-57
2022/10/18 02:42:05;;;;;;;;;;;13.90;99.90;;;;;;5011251;28;19936;-57
2022/10/18 02:44:32;;;;;;;;;;;13.90;99.90;;;;;;5011020;28;21285;-57
2022/10/18 02:46:59;;;;;;;;;;;13.80;99.90;;;;;;5010425;28;19929;-57
2022/10/18 02:49:25;;;;;;;;;;;13.90;99.90;;;;;;5009763;28;19929;-57
2022/10/18 02:51:52;;;;;;;;;;;13.90;99.90;;;;;;5011918;28;19936;-57
2022/10/18 02:54:19;;;;;;;;;;;13.90;99.90;;;;;;5009792;28;19933;-57
2022/10/18 02:56:45;;;;;;;;;;;13.90;99.90;;;;;;5012370;28;19929;-57
2022/10/18 02:59:13;;;;;;;;;;;13.80;99.90;;;;;;5011860;28;20407;-57
2022/10/18 03:01:40;;;;;;;;;;;13.90;99.90;;;;;;5010884;28;19936;-56
2022/10/18 03:04:07;;;;;;;;;;;13.80;99.90;;;;;;5011565;28;20431;-57
2022/10/18 03:06:34;;;;;;;;;;;13.80;99.90;;;;;;5010473;28;19929;-57
2022/10/18 03:09:01;;;;;;;;;;;13.80;99.90;;;;;;5008953;28;19936;-57
2022/10/18 03:11:28;;;;;;;;;;;13.90;99.90;;;;;;5011586;28;19929;-57
2022/10/18 03:13:55;;;;;;;;;;;13.80;99.90;;;;;;5010483;28;19934;-57
2022/10/18 03:16:23;;;;;;;;;;;13.80;99.90;;;;;;5011579;28;19929;-57
2022/10/18 03:18:49;;;;;;;;;;;13.90;99.90;;;;;;5010704;28;19930;-57
2022/10/18 03:21:16;;;;;;;;;;;13.90;99.90;;;;;;5010760;28;20302;-57
2022/10/18 03:23:42;;;;;;;;;;;13.90;99.90;;;;;;5011685;28;19940;-57
2022/10/18 03:26:09;;;;;;;;;;;13.80;99.90;;;;;;5010087;28;19929;-57
2022/10/18 03:28:36;;;;;;;;;;;13.80;99.90;;;;;;5009984;28;19933;-57
2022/10/18 03:31:04;;;;;;;;;;;13.80;99.90;;;;;;5010291;28;19930;-57
2022/10/18 03:33:32;;;;;;;;;;;13.80;99.90;;;;;;5008995;28;19934;-57
2022/10/18 03:35:59;;;;;;;;;;;13.80;99.90;;;;;;5010532;28;19937;-57
2022/10/18 03:38:26;;;;;;;;;;;13.80;99.90;;;;;;5010710;28;20023;-57
2022/10/18 03:40:52;;;;;;;;;;;13.80;99.90;;;;;;5011343;28;19929;-57
2022/10/18 03:43:19;;;;;;;;;;;13.80;99.90;;;;;;5011472;28;21770;-57
2022/10/18 03:45:46;;;;;;;;;;;13.70;99.90;;;;;;5010758;28;19936;-57
2022/10/18 03:48:12;;;;;;;;;;;13.70;99.90;;;;;;5009661;28;19935;-56
2022/10/18 03:50:40;;;;;;;;;;;13.70;99.90;;;;;;5010358;28;19929;-56
2022/10/18 03:53:07;;;;;;;;;;;13.70;99.90;;;;;;5010110;28;19933;-57
2022/10/18 03:55:33;;;;;;;;;;;13.60;99.90;;;;;;5010431;28;19936;-57
2022/10/18 03:58:00;;;;;;;;;;;13.60;99.90;;;;;;5010166;28;19929;-57
2022/10/18 04:00:27;;;;;;;;;;;13.70;99.90;;;;;;5010860;28;19929;-57
2022/10/18 04:02:53;;;;;;;;;;;13.60;99.90;;;;;;5009769;28;19933;-57
2022/10/18 04:05:22;;;;;;;;;;;13.60;99.90;;;;;;5009915;28;19929;-57
2022/10/18 04:07:50;;;;;;;;;;;13.60;99.90;;;;;;5009265;28;19930;-57
2022/10/18 04:10:17;;;;;;;;;;;13.50;99.90;;;;;;5010014;28;20408;-57
2022/10/18 04:12:44;;;;;;;;;;;13.60;99.90;;;;;;5010268;28;20099;-57
2022/10/18 04:15:10;;;;;;;;;;;13.50;99.90;;;;;;5010338;28;19937;-57
2022/10/18 04:17:37;;;;;;;;;;;13.50;99.90;;;;;;5009943;28;19930;-57
2022/10/18 04:20:04;;;;;;;;;;;13.50;99.90;;;;;;5009256;28;19929;-57
2022/10/18 04:22:31;;;;;;;;;;;13.50;99.90;;;;;;5008236;28;21321;-57
2022/10/18 04:24:59;;;;;;;;;;;13.50;99.90;;;;;;5007815;28;19928;-57
2022/10/18 04:27:25;;;;;;;;;;;13.50;99.90;;;;;;5009483;28;19936;-57
2022/10/18 04:29:52;;;;;;;;;;;13.50;99.90;;;;;;5008993;28;22153;-57
2022/10/18 04:32:19;;;;;;;;;;;13.50;99.90;;;;;;5008725;28;21135;-57
2022/10/18 04:34:45;;;;;;;;;;;13.50;99.90;;;;;;5008065;28;20379;-57
2022/10/18 04:37:12;;;;;;;;;;;13.40;99.90;;;;;;5009622;28;19936;-57
2022/10/18 04:39:39;;;;;;;;;;;13.40;99.90;;;;;;5005473;28;20431;-57
2022/10/18 04:42:06;;;;;;;;;;;13.40;99.90;;;;;;5008240;28;20403;-56
2022/10/18 04:44:34;;;;;;;;;;;13.40;99.90;;;;;;5007600;28;19952;-57
2022/10/18 04:47:00;;;;;;;;;;;13.40;99.90;;;;;;5007701;28;19991;-57
2022/10/18 04:49:27;;;;;;;;;;;13.40;99.90;;;;;;5005806;28;19929;-57
2022/10/18 04:51:53;;;;;;;;;;;13.30;99.90;;;;;;5006927;28;20443;-57
2022/10/18 04:54:20;;;;;;;;;;;13.30;99.90;;;;;;5005910;28;19929;-57
2022/10/18 04:56:47;;;;;;;;;;;13.30;99.90;;;;;;5008872;28;20060;-57
2022/10/18 04:59:15;;;;;;;;;;;13.30;99.90;;;;;;5008351;28;19936;-57
2022/10/18 05:01:41;;;;;;;;;;;13.20;99.90;;;;;;5006510;28;20331;-57
2022/10/18 05:04:09;;;;;;;;;;;13.20;99.90;;;;;;5007832;28;19929;-57
2022/10/18 05:06:35;;;;;;;;;;;13.20;99.90;;;;;;5007108;28;20475;-57
2022/10/18 05:09:02;;;;;;;;;;;13.20;99.90;;;;;;5007226;28;20383;-57
2022/10/18 05:11:28;;;;;;;;;;;13.20;99.90;;;;;;5007501;28;19963;-57
2022/10/18 05:13:55;;;;;;;;;;;13.20;99.90;;;;;;5007168;28;20609;-56
2022/10/18 05:16:23;;;;;;;;;;;13.10;99.90;;;;;;5007553;28;20051;-57
2022/10/18 05:18:50;;;;;;;;;;;13.10;99.90;;;;;;5007975;28;19929;-57
2022/10/18 05:21:17;;;;;;;;;;;13.10;99.90;;;;;;5007122;28;19934;-57
2022/10/18 05:23:43;;;;;;;;;;;13.00;99.90;;;;;;5004824;28;19941;-57
2022/10/18 05:26:10;;;;;;;;;;;13.00;99.90;;;;;;5005373;28;19929;-57
2022/10/18 05:28:37;;;;;;;;;;;13.00;99.90;;;;;;5005293;28;19930;-57
2022/10/18 05:31:04;;;;;;;;;;;13.00;99.90;;;;;;5007531;28;20391;-57
2022/10/18 05:33:32;;;;;;;;;;;12.90;99.90;;;;;;5003165;28;21436;-57
2022/10/18 05:35:59;;;;;;;;;;;12.90;99.90;;;;;;5004646;28;22020;-57
2022/10/18 05:38:26;;;;;;;;;;;12.90;99.90;;;;;;5005329;28;20060;-57
2022/10/18 05:40:53;;;;;;;;;;;12.90;99.90;;;;;;5006660;28;19933;-57
2022/10/18 05:43:19;;;;;;;;;;;12.90;99.90;;;;;;5004543;28;21474;-57
2022/10/18 05:45:49;;;;;;;;;;;12.90;99.90;;;;;;5006776;28;20324;-57
2022/10/18 05:48:16;;;;;;;;;;;12.90;99.90;;;;;;5005089;28;19929;-56
2022/10/18 05:50:44;;;;;;;;;;;12.80;99.90;;;;;;5007678;28;19939;-57
2022/10/18 05:53:11;;;;;;;;;;;12.70;99.90;;;;;;5003998;28;20024;-57
2022/10/18 05:55:37;;;;;;;;;;;12.70;99.90;;;;;;5004302;28;19941;-57
2022/10/18 05:58:04;;;;;;;;;;;12.70;99.90;;;;;;5008039;28;19933;-56
2022/10/18 06:00:31;;;;;;;;;;;12.70;99.90;;;;;;5003421;28;19939;-57
2022/10/18 06:02:57;;;;;;;;;;;12.60;99.90;;;;;;5007501;28;20638;-57
2022/10/18 06:05:24;;;;;;;;;;;12.60;99.90;;;;;;5004782;28;19929;-57
2022/10/18 06:07:52;;;;;;;;;;;12.60;99.90;;;;;;5006456;28;19929;-57
2022/10/18 06:10:19;;;;;;;;;;;12.60;99.90;;;;;;5006981;28;19933;-57
2022/10/18 06:12:45;;;;;;;;;;;12.60;99.90;;;;;;5007457;28;21705;-57
2022/10/18 06:15:12;;;;;;;;;;;12.50;99.90;;;;;;5006453;28;19929;-57
2022/10/18 06:17:38;;;;;;;;;;;12.50;99.90;;;;;;5006202;28;20422;-56
2022/10/18 06:20:06;;;;;;;;;;;12.50;99.90;;;;;;5007102;28;19964;-56
2022/10/18 06:22:32;;;;;;;;;;;12.50;99.90;;;;;;5007021;28;19976;-57
2022/10/18 06:25:00;;;;;;;;;;;12.50;99.90;;;;;;5008752;28;19961;-57
2022/10/18 06:27:27;;;;;;;;;;;12.50;99.90;;;;;;5006809;28;19929;-57
2022/10/18 06:29:54;;;;;;;;;;;12.50;99.90;;;;;;5006367;28;19951;-57
2022/10/18 06:32:20;;;;;;;;;;;12.40;99.90;;;;;;5008056;28;20351;-57
2022/10/18 06:34:47;;;;;;;;;;;12.40;99.90;;;;;;5004881;28;20435;-57
2022/10/18 06:37:14;;;;;;;;;;;12.40;99.90;;;;;;5005741;28;20323;-57
2022/10/18 06:39:40;;;;;;;;;;;12.30;99.90;;;;;;5003887;28;21048;-57
2022/10/18 06:42:08;;;;;;;;;;;12.30;99.90;;;;;;5004949;28;20523;-57
2022/10/18 06:44:35;;;;;;;;;;;12.30;99.90;;;;;;5005333;28;20557;-57
2022/10/18 06:47:01;;;;;;;;;;;12.30;99.90;;;;;;5008386;28;19929;-57
2022/10/18 06:49:28;;;;;;;;;;;12.20;99.90;;;;;;5007160;28;19933;-57
2022/10/18 06:51:55;;;;;;;;;;;12.30;99.90;;;;;;5008638;28;19935;-57
2022/10/18 06:54:21;;;;;;;;;;;12.20;99.90;;;;;;5002860;28;19940;-57
2022/10/18 06:56:48;;;;;;;;;;;12.20;99.90;;;;;;5006997;28;20450;-57
2022/10/18 06:59:17;;;;;;;;;;;12.20;99.90;;;;;;5005248;28;20386;-57
2022/10/18 07:01:43;;;;;;;;;;;12.20;99.90;;;;;;5007802;28;19929;-57
2022/10/18 07:04:10;;;;;;;;;;;12.20;99.90;;;;;;5004370;28;19937;-57
2022/10/18 07:06:37;;;;;;;;;;;12.20;99.90;;;;;;5009208;28;20059;-57
2022/10/18 07:09:03;;;;;;;;;;;12.30;99.90;;;;;;5003967;28;19933;-56
2022/10/18 07:11:30;;;;;;;;;;;12.30;99.90;;;;;;5005602;28;19936;-57
2022/10/18 07:14:01;;;;;;;;;;;12.30;99.90;;;;;;5008758;28;19935;-57
2022/10/18 07:16:30;;;;;;;;;;;12.30;99.90;;;;;;5007882;28;20551;-57
2022/10/18 07:18:59;;;;;;;;;;;12.30;99.90;;;;;;5006797;28;19932;-57
2022/10/18 07:21:26;;;;;;;;;;;12.30;99.90;;;;;;5007884;28;19929;-57
2022/10/18 07:23:53;;;;;;;;;;;12.30;99.90;;;;;;5007275;28;22238;-56
2022/10/18 07:26:21;;;;;;;;;;;12.20;99.90;;;;;;5008026;28;19964;-57
2022/10/18 07:28:49;;;;;;;;;;;12.40;99.90;;;;;;4123938;28;10000956;-56
2022/10/18 07:31:16;;;;;;;;;;;12.40;99.90;;;;;;5008736;28;20055;-56
2022/10/18 07:33:44;;;;;;;;;;;12.40;99.90;;;;;;5007745;28;20294;-56
2022/10/18 07:36:11;;;;;;;;;;;12.40;99.90;;;;;;4977799;28;19930;-57
2022/10/18 07:38:38;;;;;;;;;;;12.50;99.90;;;;;;5005424;28;20458;-57
2022/10/18 07:41:06;;;;;;;;;;;12.50;99.90;;;;;;5001746;28;19936;-57
2022/10/18 07:43:33;;;;;;;;;;;12.50;99.90;;;;;;5003644;28;19941;-56
2022/10/18 07:46:01;;;;;;;;;;;12.50;99.90;;;;;;5006569;28;19961;-57
2022/10/18 07:48:28;;;;;;;;;;;12.60;99.90;;;;;;4995712;28;19929;-57
2022/10/18 07:50:57;;;;;;;;;;;12.60;99.90;;;;;;4999256;28;20617;-57
2022/10/18 07:53:24;;;;;;;;;;;12.60;99.90;;;;;;5005030;28;19933;-57
2022/10/18 07:55:51;;;;;;;;;;;12.70;99.90;;;;;;5004131;28;21663;-57
2022/10/18 07:58:17;;;;;;;;;;;12.70;99.90;;;;;;5006432;28;19929;-57
2022/10/18 08:00:45;;;;;;;;;;;12.80;99.90;;;;;;5006170;28;19936;-57
2022/10/18 08:03:11;;;;;;;;;;;12.80;99.90;;;;;;5004281;28;20427;-57
2022/10/18 08:05:38;;;;;;;;;;;12.90;99.90;;;;;;5006093;28;20176;-57
2022/10/18 08:08:06;;;;;;;;;;;12.90;99.90;;;;;;5003222;28;19933;-57
2022/10/18 08:10:47;;;;;;;;;;;;;;;;;;;;;
2022/10/18 08:13:14;;;;;;;;;;;13.00;99.90;;;;;;5007040;28;19957;-57
2022/10/18 08:15:40;;;;;;;;;;;13.10;99.90;;;;;;5006472;28;19930;-57
2022/10/18 08:18:07;;;;;;;;;;;13.10;99.90;;;;;;5007345;28;19940;-57
2022/10/18 08:20:35;;;;;;;;;;;13.20;99.90;;;;;;5006317;28;19929;-57
2022/10/18 08:23:02;;;;;;;;;;;13.20;99.90;;;;;;5004863;28;20404;-57
2022/10/18 08:25:30;;;;;;;;;;;13.30;99.90;;;;;;5003563;28;20385;-57
2022/10/18 08:27:57;;;;;;;;;;;13.30;99.90;;;;;;5008259;28;19933;-57
2022/10/18 08:30:23;;;;;;;;;;;13.30;99.90;;;;;;5007581;28;20584;-57
2022/10/18 08:32:50;;;;;;;;;;;13.40;99.90;;;;;;5009436;28;20479;-56
2022/10/18 08:35:17;;;;;;;;;;;13.40;99.90;;;;;;5007922;28;20495;-56
2022/10/18 08:37:44;;;;;;;;;;;13.40;99.90;;;;;;5008284;28;19933;-56
2022/10/18 08:40:14;;;;;;;;;;;13.50;99.90;;;;;;5007384;28;20495;-57
2022/10/18 08:42:49;;;;;;;;;;;13.50;99.90;;;;;;5007294;28;19933;-57
2022/10/18 08:45:16;;;;;;;;;;;13.60;99.90;;;;;;5006729;28;20022;-57
2022/10/18 08:47:43;;;;;;;;;;;13.60;99.90;;;;;;5006696;28;19930;-57
2022/10/18 08:50:14;;;;;;;;;;;13.70;99.90;;;;;;5008015;28;19936;-57
2022/10/18 08:52:44;;;;;;;;;;;13.70;99.90;;;;;;5007537;28;19926;-57
2022/10/18 08:55:14;;;;;;;;;;;13.80;99.90;;;;;;5008150;28;19935;-57
2022/10/18 08:57:40;;;;;;;;;;;13.80;99.90;;;;;;5008568;28;20346;-57
2022/10/18 09:00:14;;;;;;;;;;;13.90;99.90;;;;;;5006521;28;19929;-57
2022/10/18 09:02:46;;;;;;;;;;;13.90;99.90;;;;;;5007603;28;19939;-57
2022/10/18 09:05:19;;;;;;;;;;;13.90;99.90;;;;;;5008175;28;19930;-57
2022/10/18 09:07:55;;;;;;;;;;;14.00;99.90;;;;;;5001800;28;19936;-56
2022/10/18 09:10:27;;;;;;;;;;;14.00;99.90;;;;;;5006404;28;20575;-57
2022/10/18 09:13:10;;;;;;;;;;;14.10;99.90;;;;;;5006110;28;19967;-57
2022/10/18 09:15:43;;;;;;;;;;;14.10;99.90;;;;;;5006958;28;20274;-56
2022/10/18 09:18:16;;;;;;;;;;;14.10;99.90;;;;;;5006625;28;19929;-57
2022/10/18 09:20:48;;;;;;;;;;;14.20;99.90;;;;;;5007494;28;19934;-54
2022/10/18 09:23:18;;;;;;;;;;;14.20;99.90;;;;;;5006281;28;19933;-57
2022/10/18 09:25:45;;;;;;;;;;;14.30;99.90;;;;;;5007054;28;20020;-57
2022/10/18 09:28:16;;;;;;;;;;;14.40;99.90;;;;;;5006069;28;19936;-57
2022/10/18 09:30:51;;;;;;;;;;;14.40;99.90;;;;;;5006958;28;19973;-57
2022/10/18 09:33:23;;;;;;;;;;;14.50;99.90;;;;;;5005998;28;20584;-56
2022/10/18 09:35:52;;;;;;;;;;;14.50;99.90;;;;;;5007159;28;19929;-57
2022/10/18 09:38:21;;;;;;;;;;;14.60;99.90;;;;;;5006056;28;19930;-57
2022/10/18 09:40:51;;;;;;;;;;;14.60;99.90;;;;;;5006617;28;20349;-57
2022/10/18 09:43:20;;;;;;;;;;;14.70;99.90;;;;;;5005303;28;19933;-57
2022/10/18 09:45:48;;;;;;;;;;;14.80;99.90;;;;;;5005775;28;19930;-57
2022/10/18 09:48:21;;;;;;;;;;;15.00;99.90;;;;;;5005316;28;20298;-57
2022/10/18 09:50:50;;;;;;;;;;;15.00;99.90;;;;;;5006852;28;19983;-57
2022/10/18 09:53:19;;;;;;;;;;;15.10;99.90;;;;;;5006377;28;19941;-57
2022/10/18 09:55:53;;;;;;;;;;;15.20;99.90;;;;;;5007291;28;19941;-57
2022/10/18 09:58:22;;;;;;;;;;;15.30;99.90;;;;;;5006557;28;19930;-57
2022/10/18 10:00:51;;;;;;;;;;;15.40;99.90;;;;;;5007107;28;20393;-57
2022/10/18 10:03:19;;;;;;;;;;;15.50;99.90;;;;;;5005430;28;20652;-57
2022/10/18 10:05:45;;;;;;;;;;;15.60;99.90;;;;;;5006281;28;19936;-57
2022/10/18 10:08:12;;;;;;;;;;;15.70;99.90;;;;;;5005875;28;20359;-57
2022/10/18 10:10:40;;;;;;;;;;;15.80;99.90;;;;;;5006598;28;19977;-57
2022/10/18 10:13:07;;;;;;;;;;;15.90;99.90;;;;;;5003636;28;19933;-57
2022/10/18 10:15:35;;;;;;;;;;;16.00;99.90;;;;;;5006059;28;19930;-57
2022/10/18 10:18:03;;;;;;;;;;;16.00;99.90;;;;;;5006582;28;19937;-57
2022/10/18 10:20:33;;;;;;;;;;;16.10;99.90;;;;;;5008286;28;20399;-57
2022/10/18 10:23:05;;;;;;;;;;;16.20;99.90;;;;;;5010171;28;20411;-57
2022/10/18 10:25:33;;;;;;;;;;;16.30;99.90;;;;;;5011051;28;19936;-57
2022/10/18 10:28:02;;;;;;;;;;;16.30;99.90;;;;;;5007349;28;19983;-57
2022/10/18 10:30:30;;;;;;;;;;;16.30;99.90;;;;;;5010358;28;19969;-57
2022/10/18 10:32:57;;;;;;;;;;;16.20;99.90;;;;;;5011290;28;19940;-57
2022/10/18 10:35:29;;;;;;;;;;;16.20;99.90;;;;;;5009307;28;21481;-57
2022/10/18 10:37:57;;;;;;;;;;;16.20;99.90;;;;;;5010262;28;19936;-57
2022/10/18 10:40:24;;;;;;;;;;;16.20;99.90;;;;;;5010494;28;19936;-57
2022/10/18 10:43:05;;;;;;;;;;;16.20;99.90;;;;;;5011804;28;19940;-57
2022/10/18 10:45:34;;;;;;;;;;;16.30;99.90;;;;;;5008328;28;19935;-57
2022/10/18 10:48:06;;;;;;;;;;;16.20;99.90;;;;;;5009523;28;19936;-57
2022/10/18 10:50:34;;;;;;;;;;;16.20;99.90;;;;;;5009200;28;19930;-57
2022/10/18 10:53:02;;;;;;;;;;;16.20;99.90;;;;;;5011183;28;19937;-57
2022/10/18 10:55:33;;;;;;;;;;;16.20;99.90;;;;;;5011332;28;20452;-57
2022/10/18 10:58:00;;;;;;;;;;;16.20;99.90;;;;;;5011311;28;20095;-57
2022/10/18 11:00:38;;;;;;;;;;;16.20;99.90;;;;;;5009455;28;19935;-57
2022/10/18 11:03:06;;;;;;;;;;;16.30;99.90;;;;;;5007331;28;21075;-57
2022/10/18 11:05:41;;;;;;;;;;;16.30;99.90;;;;;;5009979;28;19930;-57
2022/10/18 11:08:10;;;;;;;;;;;16.40;99.90;;;;;;5008135;28;19937;-57
2022/10/18 11:10:41;;;;;;;;;;;16.40;99.90;;;;;;5009768;28;20027;-57
2022/10/18 11:13:17;;;;;;;;;;;16.50;99.90;;;;;;5010226;28;19976;-57
2022/10/18 11:15:46;;;;;;;;;;;16.60;99.90;;;;;;5010824;28;19936;-57
2022/10/18 11:18:17;;;;;;;;;;;16.70;99.90;;;;;;5009473;28;19937;-57
2022/10/18 11:20:46;;;;;;;;;;;16.90;99.90;;;;;;5010670;28;20568;-57
2022/10/18 11:23:14;;;;;;;;;;;16.90;99.90;;;;;;5010214;28;19933;-57
2022/10/18 11:25:49;;;;;;;;;;;17.00;99.90;;;;;;5009192;28;19949;-57
2022/10/18 11:28:18;;;;;;;;;;;17.20;99.90;;;;;;5009167;28;19936;-57
2022/10/18 11:30:52;;;;;;;;;;;17.20;99.90;;;;;;5009051;28;19940;-57
2022/10/18 11:33:22;;;;;;;;;;;17.30;99.90;;;;;;5008448;28;19933;-57
2022/10/18 11:35:52;;;;;;;;;;;17.30;99.90;;;;;;5009082;28;20041;-57
2022/10/18 11:38:34;;;;;;;;;;;17.30;99.90;;;;;;5009161;28;19937;-57
2022/10/18 11:41:16;;;;;;;;;;;17.40;99.90;;;;;;5009424;28;20394;-57
2022/10/18 11:43:48;;;;;;;;;;;17.40;99.90;;;;;;5009435;28;19991;-57
2022/10/18 11:46:19;;;;;;;;;;;17.50;99.90;;;;;;5008858;28;19929;-57
2022/10/18 11:49:02;;;;;;;;;;;17.60;99.90;;;;;;5007638;28;19936;-57
2022/10/18 11:51:34;;;;;;;;;;;17.60;99.90;;;;;;5009969;28;20074;-57
2022/10/18 11:54:08;;;;;;;;;;;17.70;99.90;;;;;;5009140;28;19934;-57
2022/10/18 11:56:38;;;;;;;;;;;17.60;99.90;;;;;;5009400;28;19933;-57
2022/10/18 11:59:14;;;;;;;;;;;17.40;99.90;;;;;;5010502;28;19929;-57
2022/10/18 12:01:45;;;;;;;;;;;17.20;99.90;;;;;;5009833;28;19929;-57
2022/10/18 12:04:14;;;;;;;;;;;17.20;99.90;;;;;;5009784;28;20443;-57
2022/10/18 12:06:42;;;;;;;;;;;17.20;99.90;;;;;;5009965;28;19929;-57
2022/10/18 12:09:15;;;;;;;;;;;17.20;99.90;;;;;;5008130;28;20166;-57
2022/10/18 12:11:47;;;;;;;;;;;17.00;99.90;;;;;;5009787;28;20494;-57
2022/10/18 12:14:20;;;;;;;;;;;16.80;99.90;;;;;;5008918;28;20416;-57
2022/10/18 12:16:47;;;;;;;;;;;16.70;99.90;;;;;;5008090;28;19936;-57
2022/10/18 12:19:17;;;;;;;;;;;16.60;99.90;;;;;;5008783;28;20597;-57
2022/10/18 12:21:44;;;;;;;;;;;16.50;99.90;;;;;;5009308;28;19929;-57
2022/10/18 12:24:14;;;;;;;;;;;16.40;99.90;;;;;;5009343;28;19933;-57
2022/10/18 12:26:41;;;;;;;;;;;16.20;99.90;;;;;;5008648;28;19932;-57
2022/10/18 12:29:14;;;;;;;;;;;16.10;99.90;;;;;;5007710;28;20064;-57
2022/10/18 12:31:43;;;;;;;;;;;16.00;99.90;;;;;;5006599;28;20007;-57
2022/10/18 12:34:18;;;;;;;;;;;16.00;99.90;;;;;;5008407;28;19973;-57
2022/10/18 12:36:53;;;;;;;;;;;16.00;99.90;;;;;;5007599;28;19930;-57
2022/10/18 12:39:23;;;;;;;;;;;15.80;99.90;;;;;;5008132;28;19929;-57
2022/10/18 12:41:53;;;;;;;;;;;15.80;99.90;;;;;;5006847;28;19930;-57
2022/10/18 12:44:20;;;;;;;;;;;15.80;99.90;;;;;;5008771;28;19941;-57
2022/10/18 12:46:49;;;;;;;;;;;15.80;99.90;;;;;;5008398;28;19930;-57
2022/10/18 12:49:18;;;;;;;;;;;15.80;99.90;;;;;;5005606;28;19940;-57
2022/10/18 12:51:50;;;;;;;;;;;15.80;99.90;;;;;;5005694;28;19929;-57
2022/10/18 12:54:19;;;;;;;;;;;15.80;99.90;;;;;;5006036;28;19933;-57
2022/10/18 12:56:47;;;;;;;;;;;15.80;99.90;;;;;;5006579;28;19951;-57
2022/10/18 12:59:35;;;;;;;;;;;15.90;99.90;;;;;;5008992;28;20518;-57
2022/10/18 13:02:09;;;;;;;;;;;15.80;99.90;;;;;;5007997;28;19937;-57
2022/10/18 13:04:37;;;;;;;;;;;15.80;99.90;;;;;;5007150;28;19939;-57
2022/10/18 13:07:18;;;;;;;;;;;15.80;99.90;;;;;;5006663;28;20077;-57
2022/10/18 13:10:00;;;;;;;;;;;15.80;99.90;;;;;;5007121;28;20549;-57
2022/10/18 13:12:50;;;;;;;;;;;15.80;99.90;;;;;;5006866;28;21793;-57
2022/10/18 13:15:29;;;;;;;;;;;15.80;99.90;;;;;;4946310;28;19944;-57
2022/10/18 13:17:59;;;;;;;;;;;15.80;99.90;;;;;;5006499;28;20106;-57
2022/10/18 13:20:28;;;;;;;;;;;15.80;99.90;;;;;;5008895;28;19936;-57
2022/10/18 13:23:05;;;;;;;;;;;15.80;99.90;;;;;;5007816;28;19929;-57
2022/10/18 13:25:35;;;;;;;;;;;15.80;99.90;;;;;;5008010;28;19991;-57
2022/10/18 13:28:05;;;;;;;;;;;15.80;99.90;;;;;;5007571;28;21485;-57
2022/10/18 13:30:40;;;;;;;;;;;15.80;99.90;;;;;;5007141;28;20068;-57
2022/10/18 13:33:20;;;;;;;;;;;15.80;99.90;;;;;;5008058;28;19928;-57
2022/10/18 13:35:53;;;;;;;;;;;15.80;99.90;;;;;;5008142;28;20281;-57
2022/10/18 13:38:38;;;;;;;;;;;15.80;99.90;;;;;;5008509;28;19934;-57
2022/10/18 13:41:06;;;;;;;;;;;15.70;99.90;;;;;;5005677;28;21100;-57
2022/10/18 13:43:51;;;;;;;;;;;15.70;99.90;;;;;;5005391;28;19930;-57
2022/10/18 13:46:19;;;;;;;;;;;15.70;99.90;;;;;;5004382;28;19965;-57
2022/10/18 13:48:50;;;;;;;;;;;15.60;99.90;;;;;;5007360;28;19936;-57
2022/10/18 13:51:28;;;;;;;;;;;15.60;99.90;;;;;;5007540;28;19929;-57
2022/10/18 13:53:59;;;;;;;;;;;15.60;99.90;;;;;;5008540;28;19933;-57
2022/10/18 13:56:50;;;;;;;;;;;15.50;99.90;;;;;;5010929;28;19934;-57
2022/10/18 13:59:40;;;;;;;;;;;15.50;99.90;;;;;;4999043;28;20394;-57
2022/10/18 14:02:25;;;;;;;;;;;15.50;99.90;;;;;;4999674;28;19929;-57
2022/10/18 14:05:00;;;;;;;;;;;15.50;99.90;;;;;;5011261;28;20020;-57
2022/10/18 14:07:27;;;;;;;;;;;15.50;99.90;;;;;;5011462;28;21723;-57
2022/10/18 14:09:55;;;;;;;;;;;15.40;99.90;;;;;;5011349;28;19930;-57
2022/10/18 14:12:25;;;;;;;;;;;15.50;99.90;;;;;;5011613;28;20387;-57
2022/10/18 14:14:55;;;;;;;;;;;15.40;99.90;;;;;;5010880;28;20393;-57
2022/10/18 14:17:28;;;;;;;;;;;15.40;99.90;;;;;;5010804;28;19941;-57
2022/10/18 14:19:57;;;;;;;;;;;15.50;99.90;;;;;;5011707;28;19936;-57
2022/10/18 14:22:25;;;;;;;;;;;15.40;99.90;;;;;;5010258;28;19936;-57
2022/10/18 14:24:53;;;;;;;;;;;15.50;99.90;;;;;;5010297;28;20024;-57
2022/10/18 14:27:20;;;;;;;;;;;15.40;99.90;;;;;;5009825;28;19941;-57
2022/10/18 14:29:48;;;;;;;;;;;15.50;99.90;;;;;;5011009;28;19929;-57